sensor_id;sensor_type;location;lat;lon;timestamp;P1;durP1;ratioP1;P2;durP2;ratioP2
54555;SDS011;57291;37.520;15.106;2023-05-10T00:01:49;20.13;;;11.45;;
54555;SDS011;57291;37.520;15.106;2023-05-10T00:04:17;23.33;;;13.18;;
54555;SDS011;57291;37.520;15.106;2023-05-10T00:06:44;24.48;;;13.93;;
54555;SDS011;57291;37.520;15.106;2023-05-10T00:09:11;26.60;;;15.07;;
54555;SDS011;57291;37.520;15.106;2023-05-10T00:11:38;22.95;;;15.13;;
54555;SDS011;57291;37.520;15.106;2023-05-10T00:14:05;24.45;;;15.55;;
54555;SDS011;57291;37.520;15.106;2023-05-10T00:16:32;29.52;;;17.38;;
54555;SDS011;57291;37.520;15.106;2023-05-10T00:18:59;28.63;;;18.20;;
54555;SDS011;57291;37.520;15.106;2023-05-10T00:21:27;28.60;;;19.30;;
54555;SDS011;57291;37.520;15.106;2023-05-10T00:23:54;35.40;;;18.30;;
54555;SDS011;57291;37.520;15.106;2023-05-10T00:26:21;35.55;;;15.73;;
54555;SDS011;57291;37.520;15.106;2023-05-10T00:28:51;39.92;;;16.88;;
54555;SDS011;57291;37.520;15.106;2023-05-10T00:31:19;33.78;;;16.13;;
54555;SDS011;57291;37.520;15.106;2023-05-10T00:33:46;25.95;;;15.00;;
54555;SDS011;57291;37.520;15.106;2023-05-10T00:36:13;38.25;;;17.45;;
54555;SDS011;57291;37.520;15.106;2023-05-10T00:38:40;22.75;;;14.60;;
54555;SDS011;57291;37.520;15.106;2023-05-10T00:41:07;21.40;;;12.98;;
54555;SDS011;57291;37.520;15.106;2023-05-10T00:43:37;17.33;;;9.77;;
54555;SDS011;57291;37.520;15.106;2023-05-10T00:46:04;17.85;;;10.70;;
54555;SDS011;57291;37.520;15.106;2023-05-10T00:48:32;13.98;;;9.82;;
54555;SDS011;57291;37.520;15.106;2023-05-10T00:51:00;15.57;;;9.82;;
54555;SDS011;57291;37.520;15.106;2023-05-10T00:53:28;16.63;;;9.48;;
54555;SDS011;57291;37.520;15.106;2023-05-10T00:55:58;14.40;;;9.15;;
54555;SDS011;57291;37.520;15.106;2023-05-10T00:58:26;13.98;;;8.85;;
54555;SDS011;57291;37.520;15.106;2023-05-10T01:00:55;13.18;;;8.48;;
54555;SDS011;57291;37.520;15.106;2023-05-10T01:03:25;10.65;;;7.63;;
54555;SDS011;57291;37.520;15.106;2023-05-10T01:05:52;9.85;;;6.93;;
54555;SDS011;57291;37.520;15.106;2023-05-10T01:08:20;12.25;;;7.40;;
54555;SDS011;57291;37.520;15.106;2023-05-10T01:10:47;12.93;;;7.68;;
54555;SDS011;57291;37.520;15.106;2023-05-10T01:13:23;11.05;;;7.15;;
54555;SDS011;57291;37.520;15.106;2023-05-10T01:15:58;11.18;;;7.50;;
54555;SDS011;57291;37.520;15.106;2023-05-10T01:18:32;11.85;;;7.32;;
54555;SDS011;57291;37.520;15.106;2023-05-10T01:21:16;11.48;;;7.50;;
54555;SDS011;57291;37.520;15.106;2023-05-10T01:30:04;11.95;;;7.32;;
54555;SDS011;57291;37.520;15.106;2023-05-10T01:32:45;12.10;;;7.45;;
54555;SDS011;57291;37.520;15.106;2023-05-10T01:38:22;12.50;;;8.38;;
54555;SDS011;57291;37.520;15.106;2023-05-10T01:41:12;12.43;;;8.50;;
54555;SDS011;57291;37.520;15.106;2023-05-10T01:49:45;11.45;;;8.13;;
54555;SDS011;57291;37.520;15.106;2023-05-10T01:52:20;12.40;;;7.55;;
54555;SDS011;57291;37.520;15.106;2023-05-10T01:55:01;12.20;;;7.20;;
54555;SDS011;57291;37.520;15.106;2023-05-10T01:57:35;13.20;;;8.82;;
54555;SDS011;57291;37.520;15.106;2023-05-10T02:00:06;14.45;;;8.35;;
54555;SDS011;57291;37.520;15.106;2023-05-10T02:02:42;12.25;;;8.40;;
54555;SDS011;57291;37.520;15.106;2023-05-10T02:05:13;13.55;;;7.75;;
54555;SDS011;57291;37.520;15.106;2023-05-10T02:07:42;12.05;;;8.02;;
54555;SDS011;57291;37.520;15.106;2023-05-10T02:10:10;12.75;;;8.43;;
54555;SDS011;57291;37.520;15.106;2023-05-10T02:12:43;14.77;;;8.65;;
54555;SDS011;57291;37.520;15.106;2023-05-10T02:15:15;14.55;;;8.82;;
54555;SDS011;57291;37.520;15.106;2023-05-10T02:17:47;13.95;;;8.10;;
54555;SDS011;57291;37.520;15.106;2023-05-10T02:20:15;13.15;;;8.88;;
54555;SDS011;57291;37.520;15.106;2023-05-10T02:22:47;13.52;;;8.30;;
54555;SDS011;57291;37.520;15.106;2023-05-10T02:25:18;14.32;;;8.70;;
54555;SDS011;57291;37.520;15.106;2023-05-10T02:27:48;13.45;;;8.45;;
54555;SDS011;57291;37.520;15.106;2023-05-10T02:30:16;13.07;;;8.40;;
54555;SDS011;57291;37.520;15.106;2023-05-10T02:32:45;12.20;;;7.82;;
54555;SDS011;57291;37.520;15.106;2023-05-10T02:35:14;12.45;;;7.70;;
54555;SDS011;57291;37.520;15.106;2023-05-10T02:37:43;11.85;;;7.72;;
54555;SDS011;57291;37.520;15.106;2023-05-10T02:40:11;14.35;;;8.90;;
54555;SDS011;57291;37.520;15.106;2023-05-10T02:42:41;13.20;;;8.27;;
54555;SDS011;57291;37.520;15.106;2023-05-10T02:45:11;11.93;;;7.95;;
54555;SDS011;57291;37.520;15.106;2023-05-10T02:47:41;12.55;;;8.18;;
54555;SDS011;57291;37.520;15.106;2023-05-10T02:50:10;10.95;;;7.07;;
54555;SDS011;57291;37.520;15.106;2023-05-10T02:52:44;10.75;;;7.53;;
54555;SDS011;57291;37.520;15.106;2023-05-10T02:55:15;12.35;;;7.97;;
54555;SDS011;57291;37.520;15.106;2023-05-10T02:57:48;12.32;;;8.15;;
54555;SDS011;57291;37.520;15.106;2023-05-10T03:00:20;10.38;;;7.18;;
54555;SDS011;57291;37.520;15.106;2023-05-10T03:02:47;12.82;;;7.68;;
54555;SDS011;57291;37.520;15.106;2023-05-10T03:05:15;11.95;;;7.53;;
54555;SDS011;57291;37.520;15.106;2023-05-10T03:07:42;11.43;;;7.65;;
54555;SDS011;57291;37.520;15.106;2023-05-10T03:10:09;11.10;;;7.55;;
54555;SDS011;57291;37.520;15.106;2023-05-10T03:18:21;28.92;;;10.68;;
54555;SDS011;57291;37.520;15.106;2023-05-10T03:20:51;33.28;;;11.30;;
54555;SDS011;57291;37.520;15.106;2023-05-10T03:23:34;26.55;;;11.02;;
54555;SDS011;57291;37.520;15.106;2023-05-10T03:26:05;25.35;;;10.32;;
54555;SDS011;57291;37.520;15.106;2023-05-10T03:28:34;31.15;;;10.93;;
54555;SDS011;57291;37.520;15.106;2023-05-10T03:31:04;35.40;;;11.98;;
54555;SDS011;57291;37.520;15.106;2023-05-10T03:33:33;37.58;;;13.15;;
54555;SDS011;57291;37.520;15.106;2023-05-10T03:36:00;34.17;;;12.98;;
54555;SDS011;57291;37.520;15.106;2023-05-10T03:38:27;33.88;;;13.70;;
54555;SDS011;57291;37.520;15.106;2023-05-10T03:40:56;35.10;;;14.65;;
54555;SDS011;57291;37.520;15.106;2023-05-10T03:43:23;34.90;;;13.77;;
54555;SDS011;57291;37.520;15.106;2023-05-10T03:45:51;43.03;;;13.90;;
54555;SDS011;57291;37.520;15.106;2023-05-10T03:48:18;27.88;;;12.68;;
54555;SDS011;57291;37.520;15.106;2023-05-10T03:50:45;20.13;;;11.48;;
54555;SDS011;57291;37.520;15.106;2023-05-10T03:53:12;21.48;;;10.85;;
54555;SDS011;57291;37.520;15.106;2023-05-10T03:55:39;30.30;;;12.90;;
54555;SDS011;57291;37.520;15.106;2023-05-10T03:58:10;23.40;;;12.60;;
54555;SDS011;57291;37.520;15.106;2023-05-10T04:00:37;20.88;;;11.52;;
54555;SDS011;57291;37.520;15.106;2023-05-10T04:03:11;20.17;;;11.52;;
54555;SDS011;57291;37.520;15.106;2023-05-10T04:05:38;15.75;;;10.68;;
54555;SDS011;57291;37.520;15.106;2023-05-10T04:08:06;17.40;;;11.65;;
54555;SDS011;57291;37.520;15.106;2023-05-10T04:10:33;21.65;;;13.35;;
54555;SDS011;57291;37.520;15.106;2023-05-10T04:13:00;23.00;;;14.13;;
54555;SDS011;57291;37.520;15.106;2023-05-10T04:15:28;20.25;;;13.63;;
54555;SDS011;57291;37.520;15.106;2023-05-10T04:17:55;20.70;;;12.00;;
54555;SDS011;57291;37.520;15.106;2023-05-10T04:20:22;19.52;;;12.45;;
54555;SDS011;57291;37.520;15.106;2023-05-10T04:22:49;18.73;;;12.40;;
54555;SDS011;57291;37.520;15.106;2023-05-10T04:25:16;20.60;;;13.43;;
54555;SDS011;57291;37.520;15.106;2023-05-10T04:27:43;19.70;;;12.98;;
54555;SDS011;57291;37.520;15.106;2023-05-10T04:30:10;17.90;;;12.80;;
54555;SDS011;57291;37.520;15.106;2023-05-10T04:32:38;18.13;;;12.38;;
54555;SDS011;57291;37.520;15.106;2023-05-10T04:35:05;24.45;;;13.75;;
54555;SDS011;57291;37.520;15.106;2023-05-10T04:37:32;19.95;;;13.05;;
54555;SDS011;57291;37.520;15.106;2023-05-10T04:40:00;23.52;;;12.07;;
54555;SDS011;57291;37.520;15.106;2023-05-10T04:42:27;19.02;;;12.13;;
54555;SDS011;57291;37.520;15.106;2023-05-10T04:44:54;17.38;;;12.02;;
54555;SDS011;57291;37.520;15.106;2023-05-10T04:47:21;19.65;;;11.95;;
54555;SDS011;57291;37.520;15.106;2023-05-10T04:49:48;20.48;;;13.02;;
54555;SDS011;57291;37.520;15.106;2023-05-10T04:52:15;21.98;;;13.80;;
54555;SDS011;57291;37.520;15.106;2023-05-10T04:54:43;19.58;;;12.95;;
54555;SDS011;57291;37.520;15.106;2023-05-10T04:57:11;18.25;;;11.85;;
54555;SDS011;57291;37.520;15.106;2023-05-10T04:59:38;20.48;;;12.50;;
54555;SDS011;57291;37.520;15.106;2023-05-10T05:02:05;19.08;;;11.88;;
54555;SDS011;57291;37.520;15.106;2023-05-10T05:04:32;19.15;;;11.98;;
54555;SDS011;57291;37.520;15.106;2023-05-10T05:06:59;17.98;;;11.25;;
54555;SDS011;57291;37.520;15.106;2023-05-10T05:09:26;18.30;;;10.90;;
54555;SDS011;57291;37.520;15.106;2023-05-10T05:11:53;22.23;;;11.38;;
54555;SDS011;57291;37.520;15.106;2023-05-10T05:14:20;20.90;;;11.50;;
54555;SDS011;57291;37.520;15.106;2023-05-10T05:16:47;22.02;;;11.95;;
54555;SDS011;57291;37.520;15.106;2023-05-10T05:19:15;28.60;;;12.70;;
54555;SDS011;57291;37.520;15.106;2023-05-10T05:21:42;24.42;;;12.43;;
54555;SDS011;57291;37.520;15.106;2023-05-10T05:24:09;25.40;;;13.10;;
54555;SDS011;57291;37.520;15.106;2023-05-10T05:26:38;22.55;;;12.85;;
54555;SDS011;57291;37.520;15.106;2023-05-10T05:29:05;30.58;;;12.77;;
54555;SDS011;57291;37.520;15.106;2023-05-10T05:31:32;31.20;;;13.95;;
54555;SDS011;57291;37.520;15.106;2023-05-10T05:33:59;23.08;;;12.23;;
54555;SDS011;57291;37.520;15.106;2023-05-10T05:36:26;31.10;;;12.82;;
54555;SDS011;57291;37.520;15.106;2023-05-10T05:38:53;25.80;;;11.32;;
54555;SDS011;57291;37.520;15.106;2023-05-10T05:41:21;22.58;;;12.32;;
54555;SDS011;57291;37.520;15.106;2023-05-10T05:43:49;24.15;;;12.45;;
54555;SDS011;57291;37.520;15.106;2023-05-10T05:46:16;20.70;;;11.25;;
54555;SDS011;57291;37.520;15.106;2023-05-10T05:48:43;19.45;;;12.15;;
54555;SDS011;57291;37.520;15.106;2023-05-10T05:51:10;19.55;;;11.57;;
54555;SDS011;57291;37.520;15.106;2023-05-10T05:53:37;20.50;;;12.27;;
54555;SDS011;57291;37.520;15.106;2023-05-10T05:56:05;20.77;;;10.75;;
54555;SDS011;57291;37.520;15.106;2023-05-10T05:58:32;15.05;;;9.32;;
54555;SDS011;57291;37.520;15.106;2023-05-10T06:00:59;13.68;;;7.63;;
54555;SDS011;57291;37.520;15.106;2023-05-10T06:03:26;11.20;;;6.18;;
54555;SDS011;57291;37.520;15.106;2023-05-10T06:05:53;17.88;;;8.57;;
54555;SDS011;57291;37.520;15.106;2023-05-10T06:08:20;21.45;;;10.52;;
54555;SDS011;57291;37.520;15.106;2023-05-10T06:10:48;24.42;;;11.23;;
54555;SDS011;57291;37.520;15.106;2023-05-10T06:13:15;23.17;;;10.75;;
54555;SDS011;57291;37.520;15.106;2023-05-10T06:15:42;20.05;;;10.23;;
54555;SDS011;57291;37.520;15.106;2023-05-10T06:18:09;18.92;;;9.70;;
54555;SDS011;57291;37.520;15.106;2023-05-10T06:20:36;20.05;;;10.55;;
54555;SDS011;57291;37.520;15.106;2023-05-10T06:23:03;18.67;;;10.35;;
54555;SDS011;57291;37.520;15.106;2023-05-10T06:25:30;27.67;;;11.45;;
54555;SDS011;57291;37.520;15.106;2023-05-10T06:27:57;18.98;;;9.88;;
54555;SDS011;57291;37.520;15.106;2023-05-10T06:30:25;18.45;;;10.32;;
54555;SDS011;57291;37.520;15.106;2023-05-10T06:32:56;18.77;;;10.50;;
54555;SDS011;57291;37.520;15.106;2023-05-10T06:35:23;23.42;;;11.05;;
54555;SDS011;57291;37.520;15.106;2023-05-10T06:37:51;20.17;;;10.35;;
54555;SDS011;57291;37.520;15.106;2023-05-10T06:40:18;22.77;;;10.07;;
54555;SDS011;57291;37.520;15.106;2023-05-10T06:42:46;15.35;;;10.10;;
54555;SDS011;57291;37.520;15.106;2023-05-10T06:45:14;16.35;;;8.98;;
54555;SDS011;57291;37.520;15.106;2023-05-10T06:47:42;16.88;;;8.95;;
54555;SDS011;57291;37.520;15.106;2023-05-10T06:50:10;21.45;;;9.93;;
54555;SDS011;57291;37.520;15.106;2023-05-10T06:52:40;16.33;;;9.80;;
54555;SDS011;57291;37.520;15.106;2023-05-10T06:55:07;21.65;;;10.55;;
54555;SDS011;57291;37.520;15.106;2023-05-10T06:57:35;18.08;;;9.90;;
54555;SDS011;57291;37.520;15.106;2023-05-10T07:00:02;17.67;;;9.05;;
54555;SDS011;57291;37.520;15.106;2023-05-10T07:02:33;17.92;;;10.40;;
54555;SDS011;57291;37.520;15.106;2023-05-10T07:05:00;22.95;;;10.07;;
54555;SDS011;57291;37.520;15.106;2023-05-10T07:07:29;27.17;;;11.23;;
54555;SDS011;57291;37.520;15.106;2023-05-10T07:09:56;19.05;;;10.82;;
54555;SDS011;57291;37.520;15.106;2023-05-10T07:12:24;20.52;;;10.65;;
54555;SDS011;57291;37.520;15.106;2023-05-10T07:14:52;19.85;;;9.32;;
54555;SDS011;57291;37.520;15.106;2023-05-10T07:17:19;19.27;;;9.90;;
54555;SDS011;57291;37.520;15.106;2023-05-10T07:19:46;16.15;;;9.60;;
54555;SDS011;57291;37.520;15.106;2023-05-10T07:22:17;18.15;;;9.45;;
54555;SDS011;57291;37.520;15.106;2023-05-10T07:24:44;22.08;;;9.85;;
54555;SDS011;57291;37.520;15.106;2023-05-10T07:27:12;20.30;;;11.02;;
54555;SDS011;57291;37.520;15.106;2023-05-10T07:29:39;17.90;;;9.82;;
54555;SDS011;57291;37.520;15.106;2023-05-10T07:32:06;22.30;;;10.93;;
54555;SDS011;57291;37.520;15.106;2023-05-10T07:34:34;18.98;;;10.52;;
54555;SDS011;57291;37.520;15.106;2023-05-10T07:37:01;18.92;;;10.05;;
54555;SDS011;57291;37.520;15.106;2023-05-10T07:39:28;23.98;;;12.13;;
54555;SDS011;57291;37.520;15.106;2023-05-10T07:41:55;19.75;;;10.48;;
54555;SDS011;57291;37.520;15.106;2023-05-10T07:44:22;19.80;;;11.07;;
54555;SDS011;57291;37.520;15.106;2023-05-10T07:46:50;20.85;;;10.98;;
54555;SDS011;57291;37.520;15.106;2023-05-10T07:49:17;24.77;;;13.00;;
54555;SDS011;57291;37.520;15.106;2023-05-10T07:51:44;24.30;;;12.48;;
54555;SDS011;57291;37.520;15.106;2023-05-10T07:54:11;22.52;;;12.60;;
54555;SDS011;57291;37.520;15.106;2023-05-10T07:56:40;21.42;;;11.38;;
54555;SDS011;57291;37.520;15.106;2023-05-10T07:59:14;19.65;;;10.93;;
54555;SDS011;57291;37.520;15.106;2023-05-10T08:01:43;15.85;;;9.38;;
54555;SDS011;57291;37.520;15.106;2023-05-10T08:04:10;19.40;;;10.13;;
54555;SDS011;57291;37.520;15.106;2023-05-10T08:06:39;26.20;;;11.57;;
54555;SDS011;57291;37.520;15.106;2023-05-10T08:09:06;22.02;;;11.13;;
54555;SDS011;57291;37.520;15.106;2023-05-10T08:11:33;19.20;;;10.93;;
54555;SDS011;57291;37.520;15.106;2023-05-10T08:14:01;20.95;;;12.50;;
54555;SDS011;57291;37.520;15.106;2023-05-10T08:16:29;30.73;;;13.45;;
54555;SDS011;57291;37.520;15.106;2023-05-10T08:18:56;20.52;;;12.50;;
54555;SDS011;57291;37.520;15.106;2023-05-10T08:21:23;18.85;;;10.32;;
54555;SDS011;57291;37.520;15.106;2023-05-10T08:23:50;26.20;;;12.20;;
54555;SDS011;57291;37.520;15.106;2023-05-10T08:26:17;15.57;;;7.97;;
54555;SDS011;57291;37.520;15.106;2023-05-10T08:28:44;17.13;;;9.45;;
54555;SDS011;57291;37.520;15.106;2023-05-10T08:31:11;12.02;;;8.45;;
54555;SDS011;57291;37.520;15.106;2023-05-10T08:33:39;19.30;;;10.52;;
54555;SDS011;57291;37.520;15.106;2023-05-10T08:36:08;20.85;;;11.13;;
54555;SDS011;57291;37.520;15.106;2023-05-10T08:38:36;12.90;;;7.93;;
54555;SDS011;57291;37.520;15.106;2023-05-10T08:41:04;14.82;;;8.85;;
54555;SDS011;57291;37.520;15.106;2023-05-10T08:43:32;14.18;;;8.00;;
54555;SDS011;57291;37.520;15.106;2023-05-10T08:46:02;14.55;;;8.45;;
54555;SDS011;57291;37.520;15.106;2023-05-10T08:48:31;13.35;;;8.07;;
54555;SDS011;57291;37.520;15.106;2023-05-10T08:51:01;20.13;;;7.95;;
54555;SDS011;57291;37.520;15.106;2023-05-10T08:53:30;18.98;;;9.82;;
54555;SDS011;57291;37.520;15.106;2023-05-10T08:56:00;20.88;;;10.27;;
54555;SDS011;57291;37.520;15.106;2023-05-10T08:58:30;21.35;;;10.43;;
54555;SDS011;57291;37.520;15.106;2023-05-10T09:00:58;15.25;;;7.63;;
54555;SDS011;57291;37.520;15.106;2023-05-10T09:03:26;22.40;;;9.98;;
54555;SDS011;57291;37.520;15.106;2023-05-10T09:05:53;17.58;;;9.25;;
54555;SDS011;57291;37.520;15.106;2023-05-10T09:08:25;15.82;;;9.60;;
54555;SDS011;57291;37.520;15.106;2023-05-10T09:10:53;16.15;;;10.70;;
54555;SDS011;57291;37.520;15.106;2023-05-10T09:13:21;23.23;;;11.52;;
54555;SDS011;57291;37.520;15.106;2023-05-10T09:15:50;19.95;;;12.30;;
54555;SDS011;57291;37.520;15.106;2023-05-10T09:18:18;20.35;;;10.25;;
54555;SDS011;57291;37.520;15.106;2023-05-10T09:20:45;18.98;;;10.23;;
54555;SDS011;57291;37.520;15.106;2023-05-10T09:23:12;21.90;;;11.18;;
54555;SDS011;57291;37.520;15.106;2023-05-10T09:25:41;19.67;;;10.48;;
54555;SDS011;57291;37.520;15.106;2023-05-10T09:28:08;18.15;;;10.88;;
54555;SDS011;57291;37.520;15.106;2023-05-10T09:30:37;20.58;;;11.90;;
54555;SDS011;57291;37.520;15.106;2023-05-10T09:33:05;20.08;;;10.50;;
54555;SDS011;57291;37.520;15.106;2023-05-10T09:35:33;13.13;;;7.30;;
54555;SDS011;57291;37.520;15.106;2023-05-10T09:38:02;17.85;;;10.80;;
54555;SDS011;57291;37.520;15.106;2023-05-10T09:40:31;15.93;;;9.68;;
54555;SDS011;57291;37.520;15.106;2023-05-10T09:43:00;16.27;;;9.63;;
54555;SDS011;57291;37.520;15.106;2023-05-10T09:45:29;19.95;;;9.88;;
54555;SDS011;57291;37.520;15.106;2023-05-10T09:47:58;18.55;;;10.45;;
54555;SDS011;57291;37.520;15.106;2023-05-10T09:50:26;21.90;;;11.65;;
54555;SDS011;57291;37.520;15.106;2023-05-10T09:52:55;21.42;;;9.93;;
54555;SDS011;57291;37.520;15.106;2023-05-10T09:55:38;22.33;;;9.95;;
54555;SDS011;57291;37.520;15.106;2023-05-10T09:58:06;25.85;;;11.00;;
54555;SDS011;57291;37.520;15.106;2023-05-10T10:00:38;14.88;;;9.07;;
54555;SDS011;57291;37.520;15.106;2023-05-10T10:03:17;16.13;;;8.90;;
54555;SDS011;57291;37.520;15.106;2023-05-10T10:05:46;14.10;;;8.93;;
54555;SDS011;57291;37.520;15.106;2023-05-10T10:08:14;17.55;;;9.07;;
54555;SDS011;57291;37.520;15.106;2023-05-10T10:10:43;12.77;;;7.60;;
54555;SDS011;57291;37.520;15.106;2023-05-10T10:13:13;13.38;;;5.78;;
54555;SDS011;57291;37.520;15.106;2023-05-10T10:15:41;8.80;;;4.93;;
54555;SDS011;57291;37.520;15.106;2023-05-10T10:18:12;8.60;;;4.90;;
54555;SDS011;57291;37.520;15.106;2023-05-10T10:20:42;7.38;;;3.92;;
54555;SDS011;57291;37.520;15.106;2023-05-10T10:23:09;8.95;;;3.63;;
54555;SDS011;57291;37.520;15.106;2023-05-10T10:25:36;5.85;;;3.22;;
54555;SDS011;57291;37.520;15.106;2023-05-10T10:31:14;6.13;;;3.75;;
54555;SDS011;57291;37.520;15.106;2023-05-10T10:33:59;9.48;;;5.97;;
54555;SDS011;57291;37.520;15.106;2023-05-10T10:36:29;13.05;;;5.60;;
54555;SDS011;57291;37.520;15.106;2023-05-10T10:39:00;10.57;;;5.18;;
54555;SDS011;57291;37.520;15.106;2023-05-10T10:47:03;10.70;;;5.35;;
54555;SDS011;57291;37.520;15.106;2023-05-10T10:52:33;18.25;;;8.52;;
54555;SDS011;57291;37.520;15.106;2023-05-10T10:57:48;16.23;;;8.40;;
54555;SDS011;57291;37.520;15.106;2023-05-10T11:00:31;16.42;;;8.38;;
54555;SDS011;57291;37.520;15.106;2023-05-10T11:03:10;13.68;;;8.13;;
54555;SDS011;57291;37.520;15.106;2023-05-10T11:05:42;17.35;;;9.00;;
54555;SDS011;57291;37.520;15.106;2023-05-10T11:08:12;14.40;;;8.15;;
54555;SDS011;57291;37.520;15.106;2023-05-10T11:10:49;17.27;;;8.57;;
54555;SDS011;57291;37.520;15.106;2023-05-10T11:13:26;14.02;;;8.18;;
54555;SDS011;57291;37.520;15.106;2023-05-10T11:15:56;14.80;;;8.15;;
54555;SDS011;57291;37.520;15.106;2023-05-10T11:18:27;12.05;;;7.95;;
54555;SDS011;57291;37.520;15.106;2023-05-10T11:23:30;19.33;;;8.60;;
54555;SDS011;57291;37.520;15.106;2023-05-10T11:26:01;13.55;;;8.35;;
54555;SDS011;57291;37.520;15.106;2023-05-10T11:28:28;13.88;;;8.57;;
54555;SDS011;57291;37.520;15.106;2023-05-10T11:30:55;14.63;;;7.57;;
54555;SDS011;57291;37.520;15.106;2023-05-10T11:33:23;13.40;;;7.65;;
54555;SDS011;57291;37.520;15.106;2023-05-10T11:35:50;12.32;;;6.90;;
54555;SDS011;57291;37.520;15.106;2023-05-10T11:38:18;11.73;;;6.85;;
54555;SDS011;57291;37.520;15.106;2023-05-10T11:40:45;16.85;;;7.32;;
54555;SDS011;57291;37.520;15.106;2023-05-10T11:43:12;16.40;;;7.22;;
54555;SDS011;57291;37.520;15.106;2023-05-10T11:45:40;10.88;;;7.07;;
54555;SDS011;57291;37.520;15.106;2023-05-10T11:48:07;11.32;;;6.30;;
54555;SDS011;57291;37.520;15.106;2023-05-10T11:50:35;10.18;;;7.15;;
54555;SDS011;57291;37.520;15.106;2023-05-10T11:53:02;13.38;;;6.50;;
54555;SDS011;57291;37.520;15.106;2023-05-10T11:55:29;13.75;;;6.93;;
54555;SDS011;57291;37.520;15.106;2023-05-10T11:58:00;15.88;;;7.70;;
54555;SDS011;57291;37.520;15.106;2023-05-10T12:00:28;14.07;;;7.25;;
54555;SDS011;57291;37.520;15.106;2023-05-10T12:02:57;12.77;;;7.75;;
54555;SDS011;57291;37.520;15.106;2023-05-10T12:05:24;13.13;;;8.00;;
54555;SDS011;57291;37.520;15.106;2023-05-10T12:07:52;11.77;;;7.30;;
54555;SDS011;57291;37.520;15.106;2023-05-10T12:10:25;13.00;;;7.75;;
54555;SDS011;57291;37.520;15.106;2023-05-10T12:12:53;12.77;;;8.98;;
54555;SDS011;57291;37.520;15.106;2023-05-10T12:15:21;12.35;;;8.00;;
54555;SDS011;57291;37.520;15.106;2023-05-10T12:17:50;13.98;;;7.80;;
54555;SDS011;57291;37.520;15.106;2023-05-10T12:20:21;13.13;;;7.72;;
54555;SDS011;57291;37.520;15.106;2023-05-10T12:22:53;13.10;;;7.88;;
54555;SDS011;57291;37.520;15.106;2023-05-10T12:25:29;12.65;;;7.50;;
54555;SDS011;57291;37.520;15.106;2023-05-10T12:27:58;8.17;;;5.80;;
54555;SDS011;57291;37.520;15.106;2023-05-10T12:30:30;13.68;;;6.35;;
54555;SDS011;57291;37.520;15.106;2023-05-10T12:33:02;8.88;;;5.25;;
54555;SDS011;57291;37.520;15.106;2023-05-10T12:38:33;11.80;;;6.90;;
54555;SDS011;57291;37.520;15.106;2023-05-10T12:41:12;13.97;;;6.43;;
54555;SDS011;57291;37.520;15.106;2023-05-10T12:43:40;16.15;;;8.45;;
54555;SDS011;57291;37.520;15.106;2023-05-10T12:46:08;16.77;;;7.38;;
54555;SDS011;57291;37.520;15.106;2023-05-10T12:48:36;10.68;;;6.90;;
54555;SDS011;57291;37.520;15.106;2023-05-10T12:51:04;12.00;;;7.07;;
54555;SDS011;57291;37.520;15.106;2023-05-10T12:53:31;12.15;;;6.75;;
54555;SDS011;57291;37.520;15.106;2023-05-10T12:55:59;7.55;;;4.03;;
54555;SDS011;57291;37.520;15.106;2023-05-10T12:58:26;7.47;;;5.05;;
54555;SDS011;57291;37.520;15.106;2023-05-10T13:01:01;8.43;;;5.32;;
54555;SDS011;57291;37.520;15.106;2023-05-10T13:03:29;8.73;;;5.45;;
54555;SDS011;57291;37.520;15.106;2023-05-10T13:05:56;8.65;;;4.18;;
54555;SDS011;57291;37.520;15.106;2023-05-10T13:08:23;6.40;;;3.72;;
54555;SDS011;57291;37.520;15.106;2023-05-10T13:10:50;6.10;;;4.15;;
54555;SDS011;57291;37.520;15.106;2023-05-10T13:13:17;7.63;;;4.35;;
54555;SDS011;57291;37.520;15.106;2023-05-10T13:15:44;8.27;;;4.18;;
54555;SDS011;57291;37.520;15.106;2023-05-10T13:18:12;6.38;;;3.85;;
54555;SDS011;57291;37.520;15.106;2023-05-10T13:20:39;4.72;;;3.53;;
54555;SDS011;57291;37.520;15.106;2023-05-10T13:23:06;10.45;;;4.47;;
54555;SDS011;57291;37.520;15.106;2023-05-10T13:25:33;8.23;;;4.00;;
54555;SDS011;57291;37.520;15.106;2023-05-10T13:28:01;8.15;;;4.03;;
54555;SDS011;57291;37.520;15.106;2023-05-10T13:30:28;8.05;;;3.88;;
54555;SDS011;57291;37.520;15.106;2023-05-10T13:32:55;6.47;;;3.80;;
54555;SDS011;57291;37.520;15.106;2023-05-10T13:35:22;6.07;;;3.47;;
54555;SDS011;57291;37.520;15.106;2023-05-10T13:37:50;6.53;;;3.13;;
54555;SDS011;57291;37.520;15.106;2023-05-10T13:40:17;7.60;;;4.07;;
54555;SDS011;57291;37.520;15.106;2023-05-10T13:42:44;6.85;;;3.58;;
54555;SDS011;57291;37.520;15.106;2023-05-10T13:45:12;5.68;;;3.70;;
54555;SDS011;57291;37.520;15.106;2023-05-10T13:47:39;6.57;;;3.55;;
54555;SDS011;57291;37.520;15.106;2023-05-10T13:50:07;6.03;;;4.28;;
54555;SDS011;57291;37.520;15.106;2023-05-10T13:52:34;7.20;;;4.32;;
54555;SDS011;57291;37.520;15.106;2023-05-10T13:55:02;5.50;;;3.88;;
54555;SDS011;57291;37.520;15.106;2023-05-10T13:57:29;8.70;;;4.55;;
54555;SDS011;57291;37.520;15.106;2023-05-10T13:59:57;6.57;;;4.07;;
54555;SDS011;57291;37.520;15.106;2023-05-10T14:02:24;6.18;;;3.90;;
54555;SDS011;57291;37.520;15.106;2023-05-10T14:04:52;11.57;;;4.53;;
54555;SDS011;57291;37.520;15.106;2023-05-10T14:07:19;7.13;;;4.65;;
54555;SDS011;57291;37.520;15.106;2023-05-10T14:09:46;9.75;;;5.25;;
54555;SDS011;57291;37.520;15.106;2023-05-10T14:12:13;5.55;;;4.00;;
54555;SDS011;57291;37.520;15.106;2023-05-10T14:14:41;8.32;;;4.78;;
54555;SDS011;57291;37.520;15.106;2023-05-10T14:17:08;7.95;;;4.65;;
54555;SDS011;57291;37.520;15.106;2023-05-10T14:19:37;11.02;;;5.57;;
54555;SDS011;57291;37.520;15.106;2023-05-10T14:22:05;10.00;;;5.90;;
54555;SDS011;57291;37.520;15.106;2023-05-10T14:24:32;9.40;;;4.90;;
54555;SDS011;57291;37.520;15.106;2023-05-10T14:26:59;6.97;;;4.28;;
54555;SDS011;57291;37.520;15.106;2023-05-10T14:29:27;6.75;;;4.78;;
54555;SDS011;57291;37.520;15.106;2023-05-10T14:31:54;8.25;;;5.43;;
54555;SDS011;57291;37.520;15.106;2023-05-10T14:34:22;8.32;;;5.47;;
54555;SDS011;57291;37.520;15.106;2023-05-10T14:36:49;12.77;;;6.53;;
54555;SDS011;57291;37.520;15.106;2023-05-10T14:39:17;9.52;;;5.82;;
54555;SDS011;57291;37.520;15.106;2023-05-10T14:41:45;7.43;;;4.97;;
54555;SDS011;57291;37.520;15.106;2023-05-10T14:44:13;10.15;;;5.50;;
54555;SDS011;57291;37.520;15.106;2023-05-10T14:46:42;11.88;;;5.93;;
54555;SDS011;57291;37.520;15.106;2023-05-10T14:49:09;14.50;;;6.55;;
54555;SDS011;57291;37.520;15.106;2023-05-10T14:51:36;12.15;;;5.82;;
54555;SDS011;57291;37.520;15.106;2023-05-10T14:54:04;12.50;;;6.20;;
54555;SDS011;57291;37.520;15.106;2023-05-10T14:56:32;9.10;;;5.88;;
54555;SDS011;57291;37.520;15.106;2023-05-10T14:59:00;13.68;;;6.05;;
54555;SDS011;57291;37.520;15.106;2023-05-10T15:01:27;13.18;;;5.72;;
54555;SDS011;57291;37.520;15.106;2023-05-10T15:03:55;9.60;;;5.80;;
54555;SDS011;57291;37.520;15.106;2023-05-10T15:06:30;9.15;;;5.75;;
54555;SDS011;57291;37.520;15.106;2023-05-10T15:08:59;8.40;;;5.65;;